Time;durP1;ratioP1;P1;durP2;ratioP2;P2;SDS_P1;SDS_P2;PMS_P1;PMS_P2;Temp;Humidity;BMP_temperature;BMP_pressure;BME280_temperature;BME280_humidity;BME280_pressure;Samples;Min_cycle;Max_cycle;Signal;HPM_P1;HPM_P2
2024/03/25 00:00:53;;;;;;;;;;;;;;;6.05;nan;99358.44;5164866;23;19942;-68
2024/03/25 00:02:55;;;;;;;;;;;;;;;6.07;nan;99355.56;5138337;23;19943;-67
2024/03/25 00:04:56;;;;;;;;;;;;;;;6.07;nan;99355.56;5166571;23;20378;-67
2024/03/25 00:06:58;;;;;;;;;;;;;;;6.07;nan;99360.94;5166417;23;19943;-68
2024/03/25 00:09:00;;;;;;;;;;;;;;;6.08;nan;99357.22;5166385;23;19951;-67
2024/03/25 00:11:01;;;;;;;;;;;;;;;6.07;nan;99356.38;5166243;23;19990;-67
2024/03/25 00:13:03;;;;;;;;;;;;;;;6.08;nan;99355.38;5166166;23;20259;-67
2024/03/25 00:15:07;;;;;;;;;;;;;;;6.09;nan;99364.25;5166313;23;19947;-68
2024/03/25 00:17:11;;;;;;;;;;;;;;;6.09;nan;99362.38;5166893;23;19951;-67
2024/03/25 00:19:12;;;;;;;;;;;;;;;6.09;nan;99359.72;5165317;23;20313;-67
2024/03/25 00:21:14;;;;;;;;;;;;;;;6.10;nan;99372.09;5166222;23;19923;-68
2024/03/25 00:23:15;;;;;;;;;;;;;;;6.10;nan;99364.06;5139354;23;19944;-68
2024/03/25 00:25:17;;;;;;;;;;;;;;;6.11;nan;99368.41;5166887;23;19919;-68
2024/03/25 00:27:18;;;;;;;;;;;;;;;6.11;nan;99363.06;5166760;23;19943;-68
2024/03/25 00:29:20;;;;;;;;;;;;;;;6.13;nan;99373.59;5166636;23;19947;-67
2024/03/25 00:31:22;;;;;;;;;;;;;;;6.13;nan;99376.28;5165784;23;19943;-68
2024/03/25 00:33:25;;;;;;;;;;;;;;;6.13;nan;99373.59;5166877;23;19943;-68
2024/03/25 00:35:26;;;;;;;;;;;;;;;6.15;nan;99378.78;5166380;23;19954;-67
2024/03/25 00:37:27;;;;;;;;;;;;;;;6.15;nan;99379.59;5166521;23;19962;-68
2024/03/25 00:39:32;;;;;;;;;;;;;;;6.14;nan;99380.59;5165678;23;20468;-68
2024/03/25 00:41:32;;;;;;;;;;;;;;;6.14;nan;99380.59;5166242;23;19927;-68
2024/03/25 00:43:34;;;;;;;;;;;;;;;6.16;nan;99385.78;5166663;23;19920;-68
2024/03/25 00:45:35;;;;;;;;;;;;;;;6.15;nan;99390.34;5166798;23;19978;-68
2024/03/25 00:47:39;;;;;;;;;;;;;;;6.16;nan;99391.16;5166545;23;19920;-68
2024/03/25 00:49:40;;;;;;;;;;;;;;;6.16;nan;99385.78;5165946;23;19942;-67
2024/03/25 00:51:42;;;;;;;;;;;;;;;6.17;nan;99390.16;5166607;23;19924;-68
2024/03/25 00:53:43;;;;;;;;;;;;;;;6.17;nan;99390.16;5166407;23;19978;-68
2024/03/25 00:55:45;;;;;;;;;;;;;;;6.17;nan;99395.50;5166098;23;20300;-68
2024/03/25 00:57:46;;;;;;;;;;;;;;;6.14;nan;99394.00;5166613;23;19958;-68
2024/03/25 00:59:48;;;;;;;;;;;;;;;6.17;nan;99398.19;5166044;23;19923;-68
2024/03/25 01:01:49;;;;;;;;;;;;;;;6.17;nan;99398.19;5166200;23;19919;-68
2024/03/25 01:03:52;;;;;;;;;;;;;;;6.17;nan;99398.19;5165666;23;19978;-68
2024/03/25 01:05:53;;;;;;;;;;;;;;;6.17;nan;99398.19;5166276;23;19951;-68
2024/03/25 01:07:55;;;;;;;;;;;;;;;6.18;nan;99400.69;5166288;23;19950;-68
2024/03/25 01:09:56;;;;;;;;;;;;;;;6.18;nan;99405.22;5165991;23;19986;-68
2024/03/25 01:11:58;;;;;;;;;;;;;;;6.18;nan;99405.22;5165860;23;19994;-67
2024/03/25 01:13:59;;;;;;;;;;;;;;;6.18;nan;99408.72;5166550;23;19951;-68
2024/03/25 01:16:01;;;;;;;;;;;;;;;6.17;nan;99399.00;5140158;23;20335;-68
2024/03/25 01:18:02;;;;;;;;;;;;;;;6.18;nan;99405.22;5164997;23;19962;-67
2024/03/25 01:20:08;;;;;;;;;;;;;;;6.18;nan;99407.91;5166080;23;19947;-68
2024/03/25 01:22:09;;;;;;;;;;;;;;;6.18;nan;99407.91;5166451;23;19924;-68
2024/03/25 01:24:11;;;;;;;;;;;;;;;6.18;nan;99413.28;5166859;23;19924;-68
2024/03/25 01:26:12;;;;;;;;;;;;;;;6.18;nan;99407.91;5166052;23;19947;-67
2024/03/25 01:28:14;;;;;;;;;;;;;;;6.18;nan;99410.59;5166194;23;20390;-68
2024/03/25 01:30:15;;;;;;;;;;;;;;;6.19;nan;99414.91;5165980;23;19950;-68
2024/03/25 01:32:17;;;;;;;;;;;;;;;6.19;nan;99417.59;5165388;23;19919;-68
2024/03/25 01:34:18;;;;;;;;;;;;;;;6.19;nan;99420.28;5166071;23;19950;-68
2024/03/25 01:36:20;;;;;;;;;;;;;;;6.19;nan;99409.56;5166371;23;19942;-68
2024/03/25 01:38:23;;;;;;;;;;;;;;;6.19;nan;99413.09;5165972;23;19970;-68
2024/03/25 01:40:23;;;;;;;;;;;;;;;6.19;nan;99414.91;5166030;23;19947;-68
2024/03/25 01:42:26;;;;;;;;;;;;;;;6.20;nan;99419.28;5165487;23;19923;-68
2024/03/25 01:44:27;;;;;;;;;;;;;;;6.19;nan;99417.59;5166501;23;20385;-69
2024/03/25 01:46:28;;;;;;;;;;;;;;;6.20;nan;99430.00;5166513;23;19920;-68
2024/03/25 01:48:30;;;;;;;;;;;;;;;6.19;nan;99434.53;5166505;23;19958;-68
2024/03/25 01:50:32;;;;;;;;;;;;;;;6.19;nan;99434.53;5165613;23;19958;-68
2024/03/25 01:52:35;;;;;;;;;;;;;;;6.20;nan;99430.00;5165995;23;19951;-68
2024/03/25 01:54:36;;;;;;;;;;;;;;;6.19;nan;99445.25;5166420;23;19946;-68
2024/03/25 01:56:40;;;;;;;;;;;;;;;6.20;nan;99440.72;5166651;23;19926;-68
2024/03/25 01:58:42;;;;;;;;;;;;;;;6.19;nan;99439.03;5166004;23;19963;-68
2024/03/25 02:00:44;;;;;;;;;;;;;;;6.20;nan;99443.41;5166363;23;19951;-68
2024/03/25 02:02:46;;;;;;;;;;;;;;;6.19;nan;99444.41;5166246;23;19958;-67
2024/03/25 02:04:48;;;;;;;;;;;;;;;6.19;nan;99437.22;5165850;23;19958;-67
2024/03/25 02:06:50;;;;;;;;;;;;;;;6.18;nan;99442.75;5165238;23;19950;-68
2024/03/25 02:08:53;;;;;;;;;;;;;;;6.17;nan;99439.22;5165409;23;19954;-67
2024/03/25 02:10:54;;;;;;;;;;;;;;;6.18;nan;99456.16;5164765;23;19952;-68
2024/03/25 02:12:56;;;;;;;;;;;;;;;6.18;nan;99454.31;5165667;23;20332;-68
2024/03/25 02:14:58;;;;;;;;;;;;;;;6.18;nan;99458.84;5166028;23;19943;-68
2024/03/25 02:17:00;;;;;;;;;;;;;;;6.16;nan;99453.66;5166212;23;19955;-68
2024/03/25 02:19:01;;;;;;;;;;;;;;;6.16;nan;99455.50;5165756;23;19954;-68
2024/03/25 02:21:03;;;;;;;;;;;;;;;6.15;nan;99452.00;5165271;23;19926;-68
2024/03/25 02:23:04;;;;;;;;;;;;;;;6.13;nan;99462.88;5165752;23;19947;-67
2024/03/25 02:25:08;;;;;;;;;;;;;;;6.12;nan;99458.53;5167656;23;20255;-68
2024/03/25 02:27:14;;;;;;;;;;;;;;;6.12;nan;99455.03;5167314;23;19947;-68
2024/03/25 02:29:16;;;;;;;;;;;;;;;6.11;nan;99464.94;5167193;23;19951;-68
2024/03/25 02:31:17;;;;;;;;;;;;;;;6.11;nan;99467.59;5167219;23;19950;-68
2024/03/25 02:33:19;;;;;;;;;;;;;;;6.10;nan;99459.75;5167760;23;19947;-68
2024/03/25 02:35:20;;;;;;;;;;;;;;;6.09;nan;99458.88;5167652;23;19943;-68
2024/03/25 02:37:22;;;;;;;;;;;;;;;6.09;nan;99471.47;5167492;23;19958;-68
2024/03/25 02:39:24;;;;;;;;;;;;;;;6.08;nan;99465.28;5166273;23;19977;-68
2024/03/25 02:41:30;;;;;;;;;;;;;;;6.08;nan;99469.78;5167023;23;19951;-67
2024/03/25 02:43:32;;;;;;;;;;;;;;;6.09;nan;99479.50;5140966;23;19947;-68
2024/03/25 02:45:34;;;;;;;;;;;;;;;6.08;nan;99480.50;5166998;23;19943;-67
2024/03/25 02:47:35;;;;;;;;;;;;;;;6.08;nan;99478.69;5167286;23;19955;-67
2024/03/25 02:49:37;;;;;;;;;;;;;;;6.09;nan;99482.19;5166810;23;19930;-67
2024/03/25 02:51:38;;;;;;;;;;;;;;;6.08;nan;99484.03;5166871;23;20011;-68
2024/03/25 02:53:40;;;;;;;;;;;;;;;6.09;nan;99479.50;5166813;23;19951;-67
2024/03/25 02:55:41;;;;;;;;;;;;;;;6.10;nan;99486.56;5167336;23;19992;-68
2024/03/25 02:57:43;;;;;;;;;;;;;;;6.10;nan;99486.56;5167137;23;20255;-67
2024/03/25 02:59:45;;;;;;;;;;;;;;;6.10;nan;99476.66;5166653;23;19977;-67
2024/03/25 03:01:47;;;;;;;;;;;;;;;6.10;nan;99487.38;5166358;23;19950;-68
2024/03/25 03:03:48;;;;;;;;;;;;;;;6.11;nan;99493.56;5166935;23;20347;-67
2024/03/25 03:05:50;;;;;;;;;;;;;;;6.11;nan;99490.88;5167115;23;19977;-67
2024/03/25 03:07:51;;;;;;;;;;;;;;;6.11;nan;99491.75;5167342;23;19951;-67
2024/03/25 03:09:53;;;;;;;;;;;;;;;6.11;nan;99502.47;5166695;23;19943;-68
2024/03/25 03:11:54;;;;;;;;;;;;;;;6.12;nan;99504.09;5166774;23;19996;-68
2024/03/25 03:13:56;;;;;;;;;;;;;;;6.11;nan;99505.13;5167707;23;19982;-67
2024/03/25 03:15:58;;;;;;;;;;;;;;;6.12;nan;99506.78;5167385;23;19955;-68
2024/03/25 03:18:00;;;;;;;;;;;;;;;6.12;nan;99514.81;5166915;23;19958;-67
2024/03/25 03:20:01;;;;;;;;;;;;;;;6.12;nan;99514.81;5166345;23;20366;-68
2024/03/25 03:22:03;;;;;;;;;;;;;;;6.11;nan;99521.22;5166986;23;20371;-68
2024/03/25 03:24:05;;;;;;;;;;;;;;;6.12;nan;99527.41;5167464;23;19962;-68
2024/03/25 03:26:10;;;;;;;;;;;;;;;6.12;nan;99522.03;5164970;23;19944;-68
2024/03/25 03:28:11;;;;;;;;;;;;;;;6.10;nan;99522.22;5165531;23;19951;-67
2024/03/25 03:30:13;;;;;;;;;;;;;;;6.11;nan;99529.25;5166215;23;19925;-67
2024/03/25 03:32:15;;;;;;;;;;;;;;;6.11;nan;99536.44;5165949;23;20359;-67
2024/03/25 03:34:17;;;;;;;;;;;;;;;6.10;nan;99532.13;5166843;23;20322;-68
2024/03/25 03:36:18;;;;;;;;;;;;;;;6.11;nan;99525.72;5167013;23;19946;-67
2024/03/25 03:38:20;;;;;;;;;;;;;;;6.11;nan;99533.78;5166784;23;20324;-68
2024/03/25 03:40:21;;;;;;;;;;;;;;;6.10;nan;99532.94;5166330;23;19951;-68
2024/03/25 03:42:23;;;;;;;;;;;;;;;6.10;nan;99549.03;5166636;23;19931;-67
2024/03/25 03:44:24;;;;;;;;;;;;;;;6.10;nan;99542.84;5167452;23;20324;-68
2024/03/25 03:46:26;;;;;;;;;;;;;;;6.10;nan;99556.25;5167298;23;19950;-68
2024/03/25 03:48:28;;;;;;;;;;;;;;;6.10;nan;99556.25;5166676;23;19951;-68
2024/03/25 03:50:30;;;;;;;;;;;;;;;6.10;nan;99558.94;5165454;23;20300;-68
2024/03/25 03:52:31;;;;;;;;;;;;;;;6.09;nan;99566.13;5167298;23;19951;-68
2024/03/25 03:54:33;;;;;;;;;;;;;;;6.10;nan;99567.78;5166664;23;19942;-68
2024/03/25 03:56:34;;;;;;;;;;;;;;;6.10;nan;99569.66;5166570;23;19977;-68
2024/03/25 03:58:36;;;;;;;;;;;;;;;6.10;nan;99569.66;5167219;23;19947;-68
2024/03/25 04:00:38;;;;;;;;;;;;;;;6.10;nan;99573.16;5140145;23;20423;-67
2024/03/25 04:02:39;;;;;;;;;;;;;;;6.09;nan;99571.47;5167000;23;19948;-68
2024/03/25 04:04:42;;;;;;;;;;;;;;;6.10;nan;99569.66;5165020;23;19950;-68
2024/03/25 04:06:44;;;;;;;;;;;;;;;6.10;nan;99570.47;5166900;23;20165;-68
2024/03/25 04:08:45;;;;;;;;;;;;;;;6.10;nan;99577.69;5166336;23;19955;-68
2024/03/25 04:10:47;;;;;;;;;;;;;;;6.10;nan;99573.16;5166548;23;19947;-68
2024/03/25 04:12:48;;;;;;;;;;;;;;;6.10;nan;99578.53;5165847;23;19954;-67
2024/03/25 04:14:54;;;;;;;;;;;;;;;6.10;nan;99577.69;5166912;23;19998;-68
2024/03/25 04:16:55;;;;;;;;;;;;;;;6.10;nan;99583.88;5166978;23;19962;-68
2024/03/25 04:18:57;;;;;;;;;;;;;;;6.11;nan;99588.25;5167225;23;20278;-68
2024/03/25 04:21:00;;;;;;;;;;;;;;;6.10;nan;99589.25;5165840;23;19947;-68
2024/03/25 04:23:02;;;;;;;;;;;;;;;6.10;nan;99588.41;5166390;23;19955;-68
2024/03/25 04:25:03;;;;;;;;;;;;;;;6.10;nan;99597.28;5166652;23;20342;-68
2024/03/25 04:27:05;;;;;;;;;;;;;;;6.10;nan;99599.13;5166370;23;20355;-68
2024/03/25 04:29:06;;;;;;;;;;;;;;;6.10;nan;99599.13;5166089;23;19953;-68
2024/03/25 04:31:08;;;;;;;;;;;;;;;6.09;nan;99606.31;5166414;23;19958;-68
2024/03/25 04:33:09;;;;;;;;;;;;;;;6.09;nan;99609.00;5165970;23;19950;-67
2024/03/25 04:35:11;;;;;;;;;;;;;;;6.10;nan;99609.88;5139319;23;19978;-68
